Cedarwood, Colorado
Current Conditions -  °F | °C
As of 5:53 PM on Tuesday 21 Oct 2014 (Local Time) from KPUB Reporting Station
Clear Clear  
Wind Chill: 73°   Ceiling: Unl
Heat Index: 73°   Visibility: 10mi
Dew Point: 37°   Wind: 10mph
Humidity: 27%   Direction: 150°SSE
Pressure: 29.87"   Gusts: NA
Location:  37.9584°N, 104.823°W
Report Text: KPUB 212353Z AUTO 15009KT 10SM CLR 23/03 A2987 RMK AO2 SLP079 T02280028 10261 20194 56013
Loading
Personal Weather Stations






























Interactive Weather Map
Tropical Storm Tracking
New forecast layout! Learn more

10-Day Weather Forecast

Advertisements
Track Severe Weather on mobile